createdAt,value
2019-05-12T00:01:21.424Z,15.33
2019-05-12T00:03:48.590Z,13.43
2019-05-12T00:06:17.515Z,12.33
2019-05-12T00:08:43.850Z,13.47
2019-05-12T00:11:10.700Z,10.30
2019-05-12T00:13:38.487Z,12.67
2019-05-12T00:16:05.604Z,11.97
2019-05-12T00:18:32.437Z,13.40
2019-05-12T00:20:59.278Z,12.13
2019-05-12T00:23:30.334Z,10.77
2019-05-12T00:25:55.122Z,12.90
2019-05-12T00:28:21.955Z,9.90
2019-05-12T00:30:48.862Z,12.60
2019-05-12T00:33:17.818Z,12.33
2019-05-12T00:35:44.322Z,10.93
2019-05-12T00:38:11.165Z,19.27
2019-05-12T00:40:39.179Z,13.33
2019-05-12T00:43:08.696Z,11.37
2019-05-12T00:45:35.078Z,13.50
2019-05-12T00:48:01.913Z,10.63
2019-05-12T00:50:29.124Z,15.00
2019-05-12T00:52:58.043Z,12.63
2019-05-12T00:55:24.690Z,10.70
2019-05-12T00:57:51.531Z,11.10
2019-05-12T01:00:18.374Z,13.87
2019-05-12T01:02:45.223Z,13.27
2019-05-12T01:05:12.065Z,15.73
2019-05-12T01:07:39.009Z,11.53
2019-05-12T01:10:05.744Z,13.67
2019-05-12T01:12:32.685Z,10.53
2019-05-12T01:14:59.528Z,11.63
2019-05-12T01:17:28.194Z,11.30
2019-05-12T01:19:54.744Z,11.40
2019-05-12T01:22:21.586Z,12.30
2019-05-12T01:24:48.431Z,12.60
2019-05-12T01:27:15.269Z,16.80
2019-05-12T01:29:42.062Z,14.77
2019-05-12T01:32:08.857Z,12.40
2019-05-12T01:34:38.170Z,9.30
2019-05-12T01:37:04.274Z,10.13
2019-05-12T01:39:31.013Z,13.00
2019-05-12T01:41:58.730Z,13.03
2019-05-12T01:44:25.727Z,8.73
2019-05-12T01:46:52.561Z,9.90
2019-05-12T01:49:19.403Z,13.87
2019-05-12T01:51:47.643Z,13.40
2019-05-12T01:54:15.201Z,11.27
2019-05-12T01:56:42.079Z,12.93
2019-05-12T01:59:08.931Z,9.27
2019-05-12T02:01:35.761Z,9.17
2019-05-12T02:04:02.502Z,10.97
2019-05-12T02:06:29.345Z,12.30
2019-05-12T02:08:58.049Z,9.27
2019-05-12T02:11:24.562Z,9.23
2019-05-12T02:13:51.719Z,9.77
2019-05-12T02:16:18.931Z,12.87
2019-05-12T02:18:46.013Z,10.67
2019-05-12T02:21:12.805Z,11.97
2019-05-12T02:23:39.614Z,11.33
2019-05-12T02:26:08.272Z,11.13
2019-05-12T02:28:34.864Z,11.90
2019-05-12T02:31:01.652Z,12.83
2019-05-12T02:33:28.494Z,8.90
2019-05-12T02:35:55.337Z,12.40
2019-05-12T02:38:24.978Z,11.80
2019-05-12T02:40:50.659Z,13.57
2019-05-12T02:43:17.449Z,10.73
2019-05-12T02:45:44.725Z,12.47
2019-05-12T02:48:14.461Z,12.33
2019-05-12T02:50:40.293Z,13.67
2019-05-12T02:53:07.178Z,11.20
2019-05-12T02:55:34.997Z,10.57
2019-05-12T02:58:04.931Z,12.07
2019-05-12T03:00:30.927Z,12.33
2019-05-12T03:02:57.660Z,14.00
2019-05-12T03:05:24.944Z,15.17
2019-05-12T03:07:55.125Z,12.53
2019-05-12T03:10:20.546Z,12.60
2019-05-12T03:12:47.397Z,13.63
2019-05-12T03:15:15.362Z,18.53
2019-05-12T03:17:44.341Z,18.00
2019-05-12T03:22:44.815Z,14.20
2019-05-12T03:25:19.852Z,13.20
2019-05-12T03:27:39.607Z,19.97
2019-05-12T03:30:11.412Z,17.30
2019-05-12T03:32:37.897Z,19.97
2019-05-12T03:35:08.915Z,14.07
2019-05-12T03:37:35.188Z,13.77
2019-05-12T03:40:00.560Z,19.30
2019-05-12T03:42:28.079Z,16.23
2019-05-12T03:44:54.890Z,16.17
2019-05-12T03:47:24.781Z,10.00
2019-05-12T03:49:50.301Z,12.40
2019-05-12T03:52:17.304Z,12.27
2019-05-12T03:54:45.144Z,13.23
2019-05-12T03:57:14.894Z,13.20
2019-05-12T03:59:40.618Z,13.13
2019-05-12T04:02:07.366Z,10.87
2019-05-12T04:04:34.896Z,12.80
2019-05-12T04:07:04.910Z,13.70
2019-05-12T04:09:30.140Z,13.97
2019-05-12T04:11:56.984Z,14.03
2019-05-12T04:14:25.183Z,13.30
2019-05-12T04:16:54.933Z,16.40
2019-05-12T04:19:20.681Z,11.63
2019-05-12T04:21:47.520Z,10.23
2019-05-12T04:24:14.520Z,13.00
2019-05-12T04:26:44.651Z,10.17
2019-05-12T04:29:09.738Z,11.13
2019-05-12T04:31:36.529Z,13.20
2019-05-12T04:34:05.168Z,15.80
2019-05-12T04:36:35.183Z,18.47
2019-05-12T04:39:00.326Z,10.97
2019-05-12T04:41:27.166Z,11.40
2019-05-12T04:43:55.046Z,9.97
2019-05-12T04:46:25.023Z,13.47
2019-05-12T04:48:50.462Z,11.40
2019-05-12T04:51:17.300Z,8.60
2019-05-12T04:53:44.871Z,11.53
2019-05-12T04:56:19.293Z,10.00
2019-05-12T04:58:40.695Z,13.37
2019-05-12T05:01:07.429Z,9.23
2019-05-12T05:03:35.070Z,10.70
2019-05-12T05:06:04.469Z,12.47
2019-05-12T05:08:30.414Z,7.73
2019-05-12T05:10:57.255Z,18.10
2019-05-12T05:13:24.514Z,12.03
2019-05-12T05:15:51.422Z,9.47
2019-05-12T05:18:18.300Z,11.37
2019-05-12T05:20:45.146Z,9.87
2019-05-12T05:23:13.929Z,10.50
2019-05-12T05:25:40.665Z,10.07
2019-05-12T05:28:07.760Z,10.80
2019-05-12T05:30:34.563Z,11.50
2019-05-12T05:33:03.706Z,9.53
2019-05-12T05:35:35.058Z,11.17
2019-05-12T05:37:58.764Z,10.30
2019-05-12T05:40:30.132Z,13.47
2019-05-12T05:42:54.324Z,14.87
2019-05-12T05:45:24.207Z,10.93
2019-05-12T05:47:49.710Z,11.23
2019-05-12T05:50:18.416Z,14.17
2019-05-12T05:52:44.957Z,13.73
2019-05-12T05:55:19.862Z,9.63
2019-05-12T05:57:44.395Z,12.90
2019-05-12T06:00:17.391Z,10.33
2019-05-12T06:02:40.442Z,10.80
2019-05-12T06:05:07.432Z,11.93
2019-05-12T06:07:38.599Z,10.53
2019-05-12T06:10:04.090Z,13.93
2019-05-12T06:12:32.900Z,12.33
2019-05-12T06:14:59.874Z,11.93
2019-05-12T06:17:26.894Z,11.40
2019-05-12T06:19:53.947Z,11.43
2019-05-12T06:22:20.656Z,12.23
2019-05-12T06:24:53.745Z,14.87
2019-05-12T06:27:20.905Z,14.20
2019-05-12T06:29:46.909Z,12.40
2019-05-12T06:32:14.220Z,11.27
2019-05-12T06:34:43.441Z,11.00
2019-05-12T06:37:16.956Z,11.47
2019-05-12T06:39:37.963Z,12.23
2019-05-12T06:42:12.365Z,9.77
2019-05-12T06:44:34.306Z,10.63
2019-05-12T06:47:03.407Z,12.27
2019-05-12T06:49:29.941Z,11.87
2019-05-12T06:52:01.441Z,15.87
2019-05-12T06:54:26.483Z,10.97
2019-05-12T06:57:04.353Z,11.87
2019-05-12T06:59:23.780Z,12.90
2019-05-12T07:01:56.122Z,11.80
2019-05-12T07:04:21.276Z,12.60
2019-05-12T07:06:49.811Z,16.82
2019-05-12T07:09:25.116Z,9.83
2019-05-12T07:11:53.127Z,14.73
2019-05-12T07:14:22.134Z,11.25
2019-05-12T07:16:43.758Z,11.53
2019-05-12T07:19:20.544Z,10.23
2019-05-12T07:21:38.754Z,12.75
2019-05-12T07:24:10.946Z,12.28
2019-05-12T07:26:34.381Z,11.57
2019-05-12T07:29:01.218Z,11.95
2019-05-12T07:31:28.055Z,13.68
2019-05-12T07:33:54.906Z,12.55
2019-05-12T07:36:24.123Z,10.05
2019-05-12T07:38:50.323Z,11.50
2019-05-12T07:41:17.063Z,11.22
2019-05-12T07:43:44.445Z,10.32
2019-05-12T07:46:13.374Z,11.35
2019-05-12T07:48:45.487Z,7.87
2019-05-12T07:51:08.426Z,7.28
2019-05-12T07:53:35.266Z,10.82
2019-05-12T07:56:04.139Z,8.88
2019-05-12T07:58:30.508Z,7.10
2019-05-12T08:01:02.564Z,5.03
2019-05-12T08:03:25.808Z,8.90
2019-05-12T08:05:57.450Z,6.87
2019-05-12T08:08:23.492Z,6.12
2019-05-12T08:10:51.325Z,6.97
2019-05-12T08:13:18.772Z,5.70
2019-05-12T08:15:50.205Z,7.62
2019-05-12T08:18:14.444Z,6.67
2019-05-12T08:20:43.401Z,7.00
2019-05-12T08:23:10.713Z,9.90
2019-05-12T08:25:37.494Z,8.95
2019-05-12T08:28:14.706Z,7.37
2019-05-12T08:30:33.628Z,8.60
2019-05-12T08:33:03.844Z,9.93
2019-05-12T08:35:34.627Z,10.18
2019-05-12T08:37:57.818Z,10.50
2019-05-12T08:40:24.873Z,13.43
2019-05-12T08:42:53.875Z,10.25
2019-05-12T08:45:27.477Z,12.63
2019-05-12T08:47:48.886Z,12.47
2019-05-12T08:50:15.663Z,13.22
2019-05-12T08:52:44.315Z,12.93
2019-05-12T08:55:13.851Z,11.12
2019-05-12T08:57:44.409Z,12.33
2019-05-12T09:00:08.716Z,9.90
2019-05-12T09:02:39.872Z,7.92
2019-05-12T09:05:04.792Z,8.30
2019-05-12T09:07:35.831Z,8.73
2019-05-12T09:10:00.227Z,7.62
2019-05-12T09:12:27.072Z,7.47
2019-05-12T09:14:54.586Z,7.08
2019-05-12T09:17:23.239Z,8.68
2019-05-12T09:19:54.969Z,12.25
2019-05-12T09:22:20.831Z,5.87
2019-05-12T09:24:47.022Z,6.42
2019-05-12T09:27:13.850Z,6.70
2019-05-12T09:29:40.705Z,4.08
2019-05-12T09:32:09.514Z,8.55
2019-05-12T09:34:35.920Z,7.75
2019-05-12T09:37:04.056Z,8.23
2019-05-12T09:39:34.045Z,6.80
2019-05-12T09:41:59.347Z,7.75
2019-05-12T09:44:30.323Z,8.18
2019-05-12T09:46:54.727Z,8.55
2019-05-12T09:49:22.829Z,6.85
2019-05-12T09:51:50.411Z,9.93
2019-05-12T09:54:17.199Z,7.75
2019-05-12T09:56:44.283Z,9.55
2019-05-12T09:59:19.079Z,8.05
2019-05-12T10:01:40.666Z,8.28
2019-05-12T10:04:10.459Z,10.90
2019-05-12T10:06:36.634Z,9.95
2019-05-12T10:09:03.555Z,11.08
2019-05-12T10:11:30.417Z,10.23
2019-05-12T10:14:00.177Z,15.45
2019-05-12T10:16:25.738Z,12.50
2019-05-12T10:18:52.789Z,10.95
2019-05-12T10:21:19.731Z,12.73
2019-05-12T10:23:51.150Z,13.55
2019-05-12T10:26:14.974Z,10.38
2019-05-12T10:28:43.772Z,11.25
2019-05-12T10:31:10.274Z,11.75
2019-05-12T10:33:37.120Z,12.78
2019-05-12T10:36:08.291Z,10.28
2019-05-12T10:38:34.334Z,10.10
2019-05-12T10:41:01.219Z,9.50
2019-05-12T10:43:28.060Z,6.45
2019-05-12T10:45:54.902Z,7.40
2019-05-12T10:48:23.412Z,6.72
2019-05-12T10:50:50.242Z,6.92
2019-05-12T10:53:17.930Z,5.87
2019-05-12T10:55:44.726Z,6.78
2019-05-12T10:58:11.567Z,5.12
2019-05-12T11:00:38.410Z,6.55
2019-05-12T11:03:12.152Z,5.72
2019-05-12T11:05:34.218Z,8.50
2019-05-12T11:08:06.496Z,6.20
2019-05-12T11:10:29.778Z,6.85
2019-05-12T11:12:59.244Z,4.95
2019-05-12T11:15:25.128Z,6.80
2019-05-12T11:17:53.414Z,6.58
2019-05-12T11:20:20.414Z,9.10
2019-05-12T11:22:47.156Z,14.13
2019-05-12T11:25:14.440Z,15.10
2019-05-12T11:27:43.589Z,16.85
2019-05-12T11:30:09.829Z,17.37
2019-05-12T11:32:38.045Z,15.40
2019-05-12T11:35:04.949Z,14.83
2019-05-12T11:37:33.708Z,16.02
2019-05-12T11:40:00.284Z,15.08
2019-05-12T11:42:27.121Z,16.97
2019-05-12T11:44:54.059Z,22.37
2019-05-12T11:47:24.176Z,28.73
2019-05-12T11:49:49.379Z,36.68
2019-05-12T11:52:19.269Z,37.67
2019-05-12T11:54:47.135Z,37.25
2019-05-12T11:57:13.357Z,38.85
2019-05-12T11:59:40.351Z,37.93
2019-05-12T12:02:07.168Z,36.17
2019-05-12T12:04:34.074Z,34.35
2019-05-12T12:07:00.956Z,34.20
2019-05-12T12:09:27.798Z,38.08
2019-05-12T12:12:02.479Z,39.48
2019-05-12T12:14:23.817Z,40.38
2019-05-12T12:16:51.609Z,32.25
2019-05-12T12:19:19.162Z,36.05
2019-05-12T12:21:49.900Z,33.05
2019-05-12T12:24:14.480Z,34.60
2019-05-12T12:26:41.524Z,27.42
2019-05-12T12:29:08.377Z,38.88
2019-05-12T12:31:38.794Z,31.07
2019-05-12T12:34:03.690Z,30.90
2019-05-12T12:36:30.536Z,30.62
2019-05-12T12:38:57.369Z,30.25
2019-05-12T12:41:24.218Z,28.55
2019-05-12T12:43:51.053Z,24.72
2019-05-12T12:46:21.429Z,25.57
2019-05-12T12:48:46.332Z,25.23
2019-05-12T12:51:17.236Z,25.20
2019-05-12T12:53:43.717Z,24.23
2019-05-12T12:56:10.079Z,23.40
2019-05-12T12:58:36.919Z,23.33
2019-05-12T13:01:03.871Z,21.03
2019-05-12T13:03:31.420Z,21.40
2019-05-12T13:05:58.164Z,17.73
2019-05-12T13:08:25.011Z,18.10
2019-05-12T13:10:54.094Z,21.93
2019-05-12T13:13:20.430Z,22.40
2019-05-12T13:15:47.266Z,18.13
2019-05-12T13:18:18.064Z,20.20
2019-05-12T13:20:43.544Z,21.77
2019-05-12T13:23:10.429Z,19.73
2019-05-12T13:25:38.849Z,21.17
2019-05-12T13:28:10.329Z,18.17
2019-05-12T13:30:45.537Z,19.40
2019-05-12T13:33:03.575Z,16.77
2019-05-12T13:35:30.542Z,17.43
2019-05-12T13:38:00.468Z,16.20
2019-05-12T13:40:29.829Z,17.63
2019-05-12T13:42:54.681Z,21.57
2019-05-12T13:45:21.450Z,14.00
2019-05-12T13:47:48.394Z,16.27
2019-05-12T13:50:21.815Z,15.03
2019-05-12T13:52:43.719Z,14.37
2019-05-12T13:55:13.238Z,15.00
2019-05-12T13:57:46.206Z,16.73
2019-05-12T14:00:10.612Z,13.20
2019-05-12T14:02:36.409Z,13.87
2019-05-12T14:05:06.971Z,17.40
2019-05-12T14:07:34.378Z,18.53
2019-05-12T14:10:00.114Z,14.03
2019-05-12T14:12:26.951Z,15.47
2019-05-12T14:14:53.698Z,17.30
2019-05-12T14:17:20.587Z,16.77
2019-05-12T14:19:47.374Z,16.53
2019-05-12T14:22:21.173Z,16.17
2019-05-12T14:24:46.700Z,18.00
2019-05-12T14:27:11.174Z,20.30
2019-05-12T14:29:38.021Z,21.80
2019-05-12T14:32:05.465Z,14.97
2019-05-12T14:34:33.994Z,20.90
2019-05-12T14:37:06.840Z,22.97
2019-05-12T14:39:29.289Z,17.93
2019-05-12T14:41:56.118Z,19.80
2019-05-12T14:44:23.714Z,20.67
2019-05-12T14:46:50.890Z,19.40
2019-05-12T14:49:20.186Z,16.07
2019-05-12T14:51:46.457Z,19.87
2019-05-12T14:54:13.505Z,18.30
2019-05-12T14:56:44.780Z,15.03
2019-05-12T14:59:09.024Z,13.00
2019-05-12T15:01:51.634Z,18.90
2019-05-12T15:04:05.245Z,17.27
2019-05-12T15:06:34.011Z,14.87
2019-05-12T15:09:00.894Z,17.90
2019-05-12T15:11:27.739Z,16.17
2019-05-12T15:13:54.576Z,14.20
2019-05-12T15:16:23.638Z,15.53
2019-05-12T15:18:50.259Z,16.20
2019-05-12T15:21:21.304Z,18.37
2019-05-12T15:23:45.638Z,21.93
2019-05-12T15:26:15.786Z,16.77
2019-05-12T15:28:40.957Z,18.60
2019-05-12T15:31:09.586Z,17.13
2019-05-12T15:33:36.379Z,16.90
2019-05-12T15:36:04.622Z,17.53
2019-05-12T15:38:34.045Z,16.20
2019-05-12T15:41:00.185Z,14.37
2019-05-12T15:43:27.021Z,16.03
2019-05-12T15:45:55.384Z,15.20
2019-05-12T15:48:25.608Z,16.60
2019-05-12T15:50:50.822Z,13.67
2019-05-12T15:53:22.106Z,16.77
2019-05-12T15:55:49.783Z,13.60
2019-05-12T15:58:15.021Z,17.00
2019-05-12T16:00:43.841Z,21.57
2019-05-12T16:03:10.359Z,20.07
2019-05-12T16:05:37.299Z,18.20
2019-05-12T16:08:04.115Z,19.00
2019-05-12T16:10:30.892Z,22.90
2019-05-12T16:12:57.721Z,18.03
2019-05-12T16:15:24.623Z,21.17
2019-05-12T16:17:51.405Z,16.80
2019-05-12T16:20:18.256Z,19.40
2019-05-12T16:22:45.526Z,18.37
2019-05-12T16:25:14.825Z,18.77
2019-05-12T16:27:40.822Z,18.17
2019-05-12T16:30:07.662Z,17.57
2019-05-12T16:32:42.690Z,22.23
2019-05-12T16:35:07.163Z,20.97
2019-05-12T16:37:34.629Z,22.67
2019-05-12T16:39:59.863Z,18.83
2019-05-12T16:42:26.682Z,21.27
2019-05-12T16:44:56.174Z,19.80
2019-05-12T16:47:27.307Z,23.20
2019-05-12T16:49:50.489Z,21.47
2019-05-12T16:52:17.746Z,23.73
2019-05-12T16:54:44.634Z,19.27
2019-05-12T16:57:15.384Z,18.23
2019-05-12T16:59:40.010Z,22.13
2019-05-12T17:02:09.757Z,19.03
2019-05-12T17:04:35.381Z,19.13
2019-05-12T17:07:02.754Z,18.70
2019-05-12T17:09:29.803Z,18.03
2019-05-12T17:11:56.799Z,19.17
2019-05-12T17:14:23.802Z,20.73
2019-05-12T17:16:50.559Z,21.27
2019-05-12T17:19:17.410Z,19.50
2019-05-12T17:21:49.372Z,21.63
2019-05-12T17:24:14.627Z,20.63
2019-05-12T17:26:43.966Z,19.73
2019-05-12T17:29:10.705Z,18.53
2019-05-12T17:31:37.747Z,18.27
2019-05-12T17:34:08.884Z,22.20
2019-05-12T17:36:34.286Z,16.03
2019-05-12T17:39:01.568Z,18.73
2019-05-12T17:41:31.381Z,19.53
2019-05-12T17:44:01.334Z,21.10
2019-05-12T17:46:25.253Z,21.73
2019-05-12T17:48:53.242Z,21.93
2019-05-12T17:51:25.727Z,25.97
2019-05-12T17:53:49.558Z,21.53
2019-05-12T17:56:16.828Z,16.30
2019-05-12T17:58:47.470Z,18.67
2019-05-12T18:01:14.313Z,15.87
2019-05-12T18:03:48.663Z,16.90
2019-05-12T18:06:11.226Z,15.27
2019-05-12T18:08:38.771Z,16.27
2019-05-12T18:11:11.333Z,17.17
2019-05-12T18:13:34.611Z,14.23
2019-05-12T18:16:05.294Z,16.27
2019-05-12T18:18:32.603Z,15.60
2019-05-12T18:20:59.602Z,15.93
2019-05-12T18:23:30.359Z,18.63
2019-05-12T18:25:54.791Z,15.77
2019-05-12T18:28:27.092Z,11.77
2019-05-12T18:30:50.211Z,14.27
2019-05-12T18:33:29.540Z,15.67
2019-05-12T18:35:45.538Z,14.53
2019-05-12T18:38:18.215Z,13.57
2019-05-12T18:40:40.850Z,12.77
2019-05-12T18:43:07.693Z,11.00
2019-05-12T18:45:34.438Z,13.03
2019-05-12T18:48:01.347Z,10.57
2019-05-12T18:50:31.447Z,14.97
2019-05-12T18:52:56.908Z,11.97
2019-05-12T18:55:23.716Z,13.57
2019-05-12T18:57:50.695Z,14.93
2019-05-12T19:00:17.531Z,13.20
2019-05-12T19:02:44.378Z,15.93
2019-05-12T19:05:12.830Z,11.80
2019-05-12T19:07:40.274Z,10.63
2019-05-12T19:10:07.055Z,10.73
2019-05-12T19:12:35.654Z,11.57
2019-05-12T19:15:04.571Z,11.07
2019-05-12T19:17:30.852Z,12.77
2019-05-12T19:20:00.031Z,9.77
2019-05-12T19:22:26.172Z,11.63
2019-05-12T19:24:56.713Z,10.60
2019-05-12T19:27:21.394Z,11.60
2019-05-12T19:29:49.246Z,12.07
2019-05-12T19:32:16.202Z,11.47
2019-05-12T19:34:43.344Z,10.20
2019-05-12T19:37:14.106Z,10.27
2019-05-12T19:39:40.004Z,13.43
2019-05-12T19:42:10.467Z,12.47
2019-05-12T19:44:35.293Z,11.53
2019-05-12T19:47:02.073Z,9.67
2019-05-12T19:49:43.489Z,13.10
2019-05-12T19:51:57.401Z,10.93
2019-05-12T19:54:27.982Z,10.87
2019-05-12T19:56:53.728Z,9.70
2019-05-12T19:59:20.715Z,10.20
2019-05-12T20:01:47.522Z,8.97
2019-05-12T20:04:28.793Z,9.17
2019-05-12T20:06:43.967Z,8.97
2019-05-12T20:09:11.196Z,8.47
2019-05-12T20:11:39.077Z,7.77
2019-05-12T20:14:09.920Z,9.23
2019-05-12T20:16:34.716Z,11.53
2019-05-12T20:19:04.131Z,8.47
2019-05-12T20:21:31.368Z,8.07
2019-05-12T20:23:58.206Z,8.07
2019-05-12T20:26:25.047Z,6.87
2019-05-12T20:28:53.411Z,10.30
2019-05-12T20:31:23.665Z,9.40
2019-05-12T20:33:48.850Z,5.70
2019-05-12T20:36:20.737Z,8.33
2019-05-12T20:38:44.595Z,9.67
2019-05-12T20:41:21.884Z,10.47
2019-05-12T20:43:43.605Z,6.13
2019-05-12T20:46:15.833Z,6.20
2019-05-12T20:48:37.743Z,8.10
2019-05-12T20:51:08.620Z,5.87
2019-05-12T20:53:36.302Z,6.77
2019-05-12T20:56:03.608Z,6.37
2019-05-12T20:58:37.527Z,7.57
2019-05-12T21:01:01.641Z,7.10
2019-05-12T21:03:27.130Z,8.17
2019-05-12T21:05:59.106Z,5.90
2019-05-12T21:08:23.651Z,5.73
2019-05-12T21:10:50.629Z,7.53
2019-05-12T21:13:20.226Z,6.23
2019-05-12T21:15:45.999Z,5.93
2019-05-12T21:18:14.684Z,5.10
2019-05-12T21:20:46.428Z,5.37
2019-05-12T21:23:09.749Z,5.07
2019-05-12T21:25:36.691Z,6.27
2019-05-12T21:28:07.718Z,7.17
2019-05-12T21:30:33.829Z,5.90
2019-05-12T21:33:01.482Z,5.53
2019-05-12T21:35:31.766Z,5.80
2019-05-12T21:37:56.842Z,5.30
2019-05-12T21:40:30.465Z,6.00
2019-05-12T21:42:53.692Z,4.43
2019-05-12T21:45:26.723Z,5.63
2019-05-12T21:47:49.120Z,4.73
2019-05-12T21:50:15.859Z,4.40
2019-05-12T21:52:44.623Z,6.57
2019-05-12T21:55:15.384Z,5.00
2019-05-12T21:57:39.660Z,4.80
2019-05-12T22:00:10.601Z,4.93
2019-05-12T22:02:35.087Z,6.20
2019-05-12T22:05:04.020Z,5.17
2019-05-12T22:07:35.575Z,5.03
2019-05-12T22:09:58.848Z,4.70
2019-05-12T22:12:28.469Z,4.77
2019-05-12T22:14:54.343Z,5.13
2019-05-12T22:17:23.854Z,3.73
2019-05-12T22:19:49.894Z,4.43
2019-05-12T22:22:19.507Z,3.43
2019-05-12T22:24:45.162Z,4.90
2019-05-12T22:27:16.163Z,5.10
2019-05-12T22:29:40.379Z,5.37
2019-05-12T22:32:07.171Z,4.37
2019-05-12T22:34:39.769Z,6.40
2019-05-12T22:37:03.905Z,7.83
2019-05-12T22:39:33.824Z,4.70
2019-05-12T22:41:59.402Z,6.00
2019-05-12T22:44:26.248Z,5.80
2019-05-12T22:46:54.058Z,3.83
2019-05-12T22:49:21.318Z,7.57
2019-05-12T22:51:56.571Z,4.80
2019-05-12T22:54:16.890Z,3.77
2019-05-12T22:56:44.195Z,3.73
2019-05-12T22:59:11.080Z,5.27
2019-05-12T23:01:41.597Z,5.00
2019-05-12T23:04:06.407Z,3.23
2019-05-12T23:06:41.914Z,4.83
2019-05-12T23:09:01.752Z,4.70
2019-05-12T23:11:31.967Z,4.80
2019-05-12T23:13:57.056Z,5.87
2019-05-12T23:16:26.151Z,4.03
2019-05-12T23:18:53.741Z,4.10
2019-05-12T23:21:20.539Z,3.90
2019-05-12T23:23:49.974Z,6.57
2019-05-12T23:26:15.863Z,4.37
2019-05-12T23:28:46.742Z,7.97
2019-05-12T23:31:13.277Z,4.67
2019-05-12T23:33:39.559Z,4.27
2019-05-12T23:36:09.654Z,5.03
2019-05-12T23:38:34.781Z,3.93
2019-05-12T23:41:01.622Z,5.00
2019-05-12T23:43:28.366Z,4.93
2019-05-12T23:45:55.144Z,3.20
2019-05-12T23:48:21.943Z,4.67
2019-05-12T23:50:48.682Z,5.70
2019-05-12T23:53:15.522Z,3.70
2019-05-12T23:55:43.789Z,3.50
2019-05-12T23:58:10.747Z,3.23
